TimeMDT,TemperatureF,Dew PointF,Humidity,Sea Level PressureIn,VisibilityMPH,Wind Direction,Wind SpeedMPH,Gust SpeedMPH,PrecipitationIn,Events,Conditions,WindDirDegrees,DateUTC
12:53 AM,52.0,37.9,59,29.78,10.0,SSE,6.9,-,N/A,,Clear,160,2013-05-16 06:53:00
1:53 AM,50.0,36.0,59,29.79,10.0,SSE,6.9,-,N/A,,Clear,160,2013-05-16 07:53:00
2:53 AM,48.0,35.1,61,29.81,10.0,SSE,5.8,-,N/A,,Clear,150,2013-05-16 08:53:00
3:53 AM,50.0,30.0,46,29.81,10.0,SSE,11.5,-,N/A,,Clear,150,2013-05-16 09:53:00
4:53 AM,46.9,30.9,54,29.82,10.0,South,5.8,-,N/A,,Clear,170,2013-05-16 10:53:00
5:53 AM,45.0,32.0,60,29.83,10.0,SSE,6.9,-,N/A,,Clear,150,2013-05-16 11:53:00
6:53 AM,48.0,34.0,58,29.84,10.0,SE,8.1,-,N/A,,Clear,140,2013-05-16 12:53:00
7:53 AM,55.9,35.1,45,29.84,10.0,South,4.6,-,N/A,,Clear,180,2013-05-16 13:53:00
9:53 AM,69.1,39.9,35,29.81,10.0,North,4.6,-,N/A,,Clear,360,2013-05-16 15:53:00
10:53 AM,73.9,33.1,22,29.79,10.0,Calm,Calm,-,N/A,,Clear,0,2013-05-16 16:53:00
11:53 AM,77.0,28.0,17,29.78,10.0,Variable,4.6,-,N/A,,Clear,0,2013-05-16 17:53:00
12:53 PM,80.1,26.1,14,29.76,10.0,Calm,Calm,-,N/A,,Clear,0,2013-05-16 18:53:00
1:53 PM,80.1,24.1,13,29.75,10.0,Variable,5.8,-,N/A,,Partly Cloudy,0,2013-05-16 19:53:00
2:53 PM,80.1,23.0,12,29.73,10.0,West,11.5,-,N/A,,Partly Cloudy,260,2013-05-16 20:53:00
4:53 PM,81.0,24.1,12,29.69,10.0,WSW,17.3,-,N/A,,Clear,240,2013-05-16 22:53:00
5:53 PM,78.1,25.0,14,29.70,10.0,SW,15.0,20.7,N/A,,Clear,230,2013-05-16 23:53:00
6:53 PM,77.0,23.0,13,29.69,10.0,WSW,19.6,23.0,N/A,,Clear,240,2013-05-17 00:53:00
7:53 PM,75.9,21.0,13,29.69,10.0,SW,10.4,-,N/A,,Clear,230,2013-05-17 01:53:00
8:53 PM,71.1,25.0,18,29.69,10.0,South,4.6,-,N/A,,Clear,180,2013-05-17 02:53:00
9:53 PM,66.9,28.9,24,29.70,10.0,SE,9.2,-,N/A,,Clear,130,2013-05-17 03:53:00
10:53 PM,64.9,28.0,25,29.70,10.0,SSE,9.2,-,N/A,,Clear,150,2013-05-17 04:53:00
11:53 PM,61.0,30.0,31,29.70,10.0,SE,6.9,-,N/A,,Clear,140,2013-05-17 05:53:00